Time;durP1;ratioP1;P1;durP2;ratioP2;P2;SDS_P1;SDS_P2;PMS_P1;PMS_P2;Temp;Humidity;BMP_temperature;BMP_pressure;BME280_temperature;BME280_humidity;BME280_pressure;Samples;Min_cycle;Max_cycle;Signal;HPM_P1;HPM_P2
2023/06/30 00:01:28;;;;;;;3.80;1.05;;;17.10;99.90;;;;;;4839643;29;20049;-72
2023/06/30 00:03:55;;;;;;;5.35;0.93;;;17.10;99.90;;;;;;4836686;29;20036;-73
2023/06/30 00:06:22;;;;;;;5.40;1.30;;;17.10;99.90;;;;;;4831242;29;20041;-73
2023/06/30 00:08:49;;;;;;;8.30;1.50;;;17.00;99.90;;;;;;4811369;29;20064;-71
2023/06/30 00:11:17;;;;;;;6.13;1.40;;;17.00;99.90;;;;;;4810769;29;20056;-73
2023/06/30 00:13:44;;;;;;;5.43;1.60;;;17.00;99.90;;;;;;4831726;29;20721;-74
2023/06/30 00:16:10;;;;;;;5.63;1.52;;;16.90;99.90;;;;;;4834732;29;20504;-74
2023/06/30 00:18:37;;;;;;;2.97;1.00;;;16.90;99.90;;;;;;4838869;29;20052;-72
2023/06/30 00:21:03;;;;;;;3.00;1.08;;;16.80;99.90;;;;;;4836849;29;20045;-72
2023/06/30 00:23:30;;;;;;;4.68;1.10;;;16.80;99.90;;;;;;4830997;29;21546;-73
2023/06/30 00:25:56;;;;;;;8.13;1.35;;;16.80;99.90;;;;;;4830280;29;20048;-73
2023/06/30 00:28:23;;;;;;;4.00;1.25;;;16.80;99.90;;;;;;4799947;29;20053;-73
2023/06/30 00:30:49;;;;;;;4.43;1.20;;;16.70;99.90;;;;;;4821312;29;20045;-73
2023/06/30 00:33:16;;;;;;;10.23;1.25;;;16.70;99.90;;;;;;4815787;29;20059;-72
2023/06/30 00:35:43;;;;;;;2.85;0.93;;;16.60;99.90;;;;;;4835360;29;20041;-73
2023/06/30 00:38:10;;;;;;;4.20;0.90;;;16.50;99.90;;;;;;4839841;29;20052;-71
2023/06/30 00:40:37;;;;;;;4.00;0.95;;;16.40;99.90;;;;;;4831513;29;20044;-72
2023/06/30 00:43:04;;;;;;;3.95;1.20;;;16.40;99.90;;;;;;4829246;29;21265;-72
2023/06/30 00:45:30;;;;;;;4.05;0.93;;;16.30;99.90;;;;;;4801957;29;20412;-72
2023/06/30 00:47:58;;;;;;;4.68;0.90;;;16.30;99.90;;;;;;4813422;29;20142;-71
2023/06/30 00:50:26;;;;;;;5.40;1.25;;;16.20;99.90;;;;;;4821936;29;20045;-71
2023/06/30 00:52:53;;;;;;;3.90;0.80;;;16.10;99.90;;;;;;4813152;29;20037;-71
2023/06/30 00:55:20;;;;;;;4.82;0.80;;;16.10;99.90;;;;;;4839212;29;20364;-71
2023/06/30 00:57:46;;;;;;;3.65;1.10;;;16.00;99.90;;;;;;4841823;29;20056;-71
2023/06/30 01:00:13;;;;;;;6.35;0.90;;;16.00;99.90;;;;;;4810370;29;20041;-71
2023/06/30 01:02:50;;;;;;;3.85;0.93;;;15.90;99.90;;;;;;4826369;29;20041;-71
2023/06/30 01:05:25;;;;;;;4.10;0.80;;;15.90;99.90;;;;;;4799610;29;20045;-71
2023/06/30 01:08:07;;;;;;;7.50;0.90;;;15.80;99.90;;;;;;4817649;29;20041;-71
2023/06/30 01:10:34;;;;;;;3.22;0.60;;;15.70;99.90;;;;;;4826824;29;20041;-71
2023/06/30 01:13:05;;;;;;;6.35;0.88;;;15.70;99.90;;;;;;4839284;29;20060;-71
2023/06/30 01:15:33;;;;;;;4.18;0.77;;;15.60;99.90;;;;;;4843566;29;20033;-71
2023/06/30 01:18:01;;;;;;;2.90;0.70;;;15.60;99.90;;;;;;4842390;29;22201;-71
2023/06/30 01:20:32;;;;;;;4.70;0.70;;;15.60;99.90;;;;;;4826027;29;20040;-71
2023/06/30 01:23:01;;;;;;;3.17;0.68;;;15.60;99.90;;;;;;4832262;29;20045;-71
2023/06/30 01:25:29;;;;;;;2.83;0.80;;;15.50;99.90;;;;;;4833061;29;20041;-71
2023/06/30 01:27:57;;;;;;;4.07;0.82;;;15.50;99.90;;;;;;4834452;29;20041;-71
2023/06/30 01:30:29;;;;;;;5.20;0.90;;;15.40;99.90;;;;;;4813330;29;20903;-71
2023/06/30 01:32:58;;;;;;;1.87;0.60;;;15.40;99.90;;;;;;4844102;29;20957;-71
2023/06/30 01:35:26;;;;;;;5.80;0.90;;;15.30;99.90;;;;;;4841641;29;20300;-71
2023/06/30 01:37:53;;;;;;;6.28;1.13;;;15.30;99.90;;;;;;4819142;29;20045;-71
2023/06/30 01:40:21;;;;;;;3.10;0.80;;;15.20;99.90;;;;;;4812189;29;20052;-71
2023/06/30 01:42:50;;;;;;;7.55;1.23;;;15.20;99.90;;;;;;4830640;29;20575;-71
2023/06/30 01:45:18;;;;;;;3.75;0.80;;;15.20;99.90;;;;;;4832196;29;20719;-71
2023/06/30 01:47:45;;;;;;;2.13;1.00;;;15.10;99.90;;;;;;4833557;29;20045;-71
2023/06/30 01:50:11;;;;;;;3.83;1.10;;;15.10;99.90;;;;;;4804039;29;20048;-71
2023/06/30 01:52:38;;;;;;;4.15;1.25;;;15.10;99.90;;;;;;4841654;29;20423;-71
2023/06/30 01:55:04;;;;;;;4.00;1.00;;;15.00;99.90;;;;;;4843492;29;20037;-71
2023/06/30 01:57:31;;;;;;;3.22;1.02;;;15.00;99.90;;;;;;4822233;29;20056;-71
2023/06/30 01:59:57;;;;;;;4.25;1.20;;;15.00;99.90;;;;;;4830380;29;20037;-71
2023/06/30 02:02:24;;;;;;;3.72;1.10;;;14.90;99.90;;;;;;4832694;29;20041;-70
2023/06/30 02:04:50;;;;;;;2.83;0.90;;;14.90;99.90;;;;;;4820349;29;20296;-71
2023/06/30 02:07:17;;;;;;;3.45;0.90;;;14.90;99.90;;;;;;4832553;29;20830;-71
2023/06/30 02:09:43;;;;;;;7.28;1.38;;;14.80;99.90;;;;;;4837283;29;20068;-71
2023/06/30 02:12:10;;;;;;;8.05;1.40;;;14.90;99.90;;;;;;4842730;29;20044;-71
2023/06/30 02:14:36;;;;;;;7.28;1.63;;;14.80;99.90;;;;;;4824965;29;20029;-71
2023/06/30 02:17:03;;;;;;;6.82;1.38;;;14.70;99.90;;;;;;4834396;29;20055;-70
2023/06/30 02:19:29;;;;;;;3.97;1.52;;;14.70;99.90;;;;;;4830298;29;20405;-71
2023/06/30 02:21:55;;;;;;;6.20;1.52;;;14.70;99.90;;;;;;4832108;29;20063;-71
2023/06/30 02:24:22;;;;;;;5.88;1.70;;;14.60;99.90;;;;;;4840665;29;20397;-70
2023/06/30 02:26:48;;;;;;;6.40;1.70;;;14.60;99.90;;;;;;4823481;29;20041;-70
2023/06/30 02:29:14;;;;;;;3.35;1.20;;;14.50;99.90;;;;;;4810485;29;20052;-70
2023/06/30 02:31:41;;;;;;;4.60;1.75;;;14.50;99.90;;;;;;4851244;29;20526;-70
2023/06/30 02:34:07;;;;;;;3.65;1.10;;;14.50;99.90;;;;;;4825222;29;20047;-70
2023/06/30 02:36:33;;;;;;;4.10;1.35;;;14.40;99.90;;;;;;4832003;29;20718;-70
2023/06/30 02:39:00;;;;;;;3.13;1.05;;;14.40;99.90;;;;;;4813822;29;20626;-70
2023/06/30 02:41:26;;;;;;;5.25;1.30;;;14.30;99.90;;;;;;4818761;29;20041;-70
2023/06/30 02:43:52;;;;;;;9.77;1.80;;;14.30;99.90;;;;;;4839096;29;20439;-70
2023/06/30 02:46:19;;;;;;;4.93;1.10;;;14.30;99.90;;;;;;4834687;29;20044;-70
2023/06/30 02:48:45;;;;;;;5.32;1.30;;;14.30;99.90;;;;;;4845132;29;20052;-70
2023/06/30 02:51:12;;;;;;;4.68;1.50;;;14.20;99.90;;;;;;4819494;29;20739;-70
2023/06/30 02:53:38;;;;;;;5.35;1.65;;;14.20;99.90;;;;;;4819466;29;20040;-70
2023/06/30 02:56:05;;;;;;;5.75;1.25;;;14.10;99.90;;;;;;4831198;29;20422;-70
2023/06/30 02:58:37;;;;;;;4.53;1.08;;;14.10;99.90;;;;;;4817262;29;20056;-70
2023/06/30 03:01:05;;;;;;;3.47;1.75;;;14.10;99.90;;;;;;4826329;29;20044;-70
2023/06/30 03:03:35;;;;;;;3.78;1.40;;;14.00;99.90;;;;;;4821277;29;20037;-71
2023/06/30 03:06:02;;;;;;;5.07;1.33;;;14.00;99.90;;;;;;4826014;29;20052;-71
2023/06/30 03:08:32;;;;;;;4.22;1.17;;;14.00;99.90;;;;;;4812034;29;20056;-70
2023/06/30 03:10:58;;;;;;;4.63;1.42;;;14.00;99.90;;;;;;4809625;29;20512;-70
2023/06/30 03:13:24;;;;;;;3.17;1.20;;;13.90;99.90;;;;;;4829302;29;20041;-70
2023/06/30 03:15:51;;;;;;;4.10;0.98;;;13.90;99.90;;;;;;4816977;29;20037;-70
2023/06/30 03:18:17;;;;;;;5.78;1.20;;;13.90;99.90;;;;;;4831590;29;20805;-70
2023/06/30 03:20:44;;;;;;;3.38;1.17;;;13.90;99.90;;;;;;4808435;29;20056;-70
2023/06/30 03:23:13;;;;;;;3.38;1.10;;;13.80;99.90;;;;;;4825068;29;20552;-71
2023/06/30 03:25:40;;;;;;;5.18;1.30;;;13.80;99.90;;;;;;4826938;29;20041;-70
2023/06/30 03:28:07;;;;;;;4.40;0.90;;;13.70;99.90;;;;;;4803012;29;20051;-70
2023/06/30 03:30:33;;;;;;;3.70;1.05;;;13.70;99.90;;;;;;4809589;29;20056;-70
2023/06/30 03:33:00;;;;;;;4.38;0.93;;;13.70;99.90;;;;;;4829417;29;20705;-70
2023/06/30 03:35:26;;;;;;;5.82;1.52;;;13.70;99.90;;;;;;4829351;29;20037;-70
2023/06/30 03:37:53;;;;;;;5.10;1.17;;;13.70;99.90;;;;;;4813012;29;20049;-70
2023/06/30 03:40:20;;;;;;;3.28;1.08;;;13.60;99.90;;;;;;4801007;29;20052;-70
2023/06/30 03:42:46;;;;;;;4.05;1.15;;;13.60;99.90;;;;;;4839845;29;20037;-71
2023/06/30 03:45:12;;;;;;;3.28;1.05;;;13.60;99.90;;;;;;4839379;29;20056;-70
2023/06/30 03:47:39;;;;;;;2.72;0.65;;;13.60;99.90;;;;;;4817247;29;20040;-71
2023/06/30 03:50:06;;;;;;;3.13;1.00;;;13.60;99.90;;;;;;4824452;29;20063;-70
2023/06/30 03:52:33;;;;;;;3.38;0.80;;;13.60;99.90;;;;;;4811231;29;20582;-70
2023/06/30 03:54:59;;;;;;;4.47;1.05;;;13.60;99.90;;;;;;4797960;29;20063;-70
2023/06/30 03:57:25;;;;;;;4.88;1.02;;;13.60;99.90;;;;;;4815741;29;20064;-71
2023/06/30 03:59:52;;;;;;;3.15;0.73;;;13.60;99.90;;;;;;4820277;29;20041;-71
2023/06/30 04:02:18;;;;;;;4.47;0.80;;;13.60;99.90;;;;;;4839884;29;20406;-71
2023/06/30 04:04:44;;;;;;;3.45;0.77;;;13.60;99.90;;;;;;4832612;29;20033;-70
2023/06/30 04:07:11;;;;;;;3.75;0.80;;;13.60;99.90;;;;;;4829139;29;20039;-70
2023/06/30 04:09:37;;;;;;;2.22;0.60;;;13.60;99.90;;;;;;4808671;29;20041;-70
2023/06/30 04:12:04;;;;;;;4.10;1.20;;;13.70;99.90;;;;;;4827355;29;20044;-70
2023/06/30 04:14:30;;;;;;;2.40;0.50;;;13.70;99.90;;;;;;4831159;29;20044;-71
2023/06/30 04:16:57;;;;;;;4.10;0.90;;;13.70;99.90;;;;;;4822513;29;20036;-71
2023/06/30 04:19:23;;;;;;;5.07;0.70;;;13.70;99.90;;;;;;4821164;29;21661;-71
2023/06/30 04:21:49;;;;;;;3.75;0.80;;;13.80;99.90;;;;;;4817986;29;20049;-70
2023/06/30 04:24:16;;;;;;;4.10;0.63;;;13.80;99.90;;;;;;4819417;29;20045;-72
2023/06/30 04:26:42;;;;;;;3.22;0.60;;;13.90;99.90;;;;;;4828557;29;20049;-71
2023/06/30 04:29:08;;;;;;;2.53;0.57;;;13.90;99.90;;;;;;4824672;29;20052;-71
2023/06/30 04:31:35;;;;;;;2.08;0.60;;;14.00;99.90;;;;;;4811511;29;21417;-71
2023/06/30 04:34:01;;;;;;;1.98;0.50;;;14.00;99.90;;;;;;4831493;29;20037;-70
2023/06/30 04:36:28;;;;;;;3.35;0.70;;;14.00;99.90;;;;;;4841869;29;20037;-70
2023/06/30 04:38:55;;;;;;;4.43;0.55;;;14.10;99.90;;;;;;4837363;29;20044;-69
2023/06/30 04:41:22;;;;;;;2.45;0.50;;;14.10;99.90;;;;;;4832644;29;20044;-70
2023/06/30 04:43:48;;;;;;;2.03;0.60;;;14.20;99.90;;;;;;4818628;29;20045;-70
2023/06/30 04:46:16;;;;;;;2.42;0.50;;;14.30;99.90;;;;;;4818378;29;20667;-70
2023/06/30 04:48:42;;;;;;;2.50;0.60;;;14.40;99.90;;;;;;4830425;29;20040;-70
2023/06/30 04:51:08;;;;;;;2.88;0.50;;;14.50;99.90;;;;;;4826539;29;20041;-70
2023/06/30 04:53:35;;;;;;;4.05;0.65;;;14.50;99.90;;;;;;4840259;29;20029;-70
2023/06/30 04:56:02;;;;;;;4.25;1.25;;;14.70;99.90;;;;;;4814564;29;20076;-70
2023/06/30 04:58:28;;;;;;;2.28;0.52;;;14.80;99.90;;;;;;4827791;29;20045;-70
2023/06/30 05:00:56;;;;;;;2.90;1.08;;;14.90;99.90;;;;;;4825284;29;20044;-70
2023/06/30 05:03:22;;;;;;;2.75;0.60;;;15.10;99.90;;;;;;4831091;29;20171;-71
2023/06/30 05:05:49;;;;;;;2.80;0.57;;;15.20;99.90;;;;;;4816546;29;20539;-71
2023/06/30 05:08:15;;;;;;;3.50;0.60;;;15.40;99.90;;;;;;4833511;29;20052;-72
2023/06/30 05:10:42;;;;;;;3.63;0.90;;;15.50;99.90;;;;;;4827910;29;20056;-73
2023/06/30 05:13:08;;;;;;;3.83;1.30;;;15.70;99.90;;;;;;4814940;29;20040;-70
2023/06/30 05:15:34;;;;;;;3.22;0.93;;;15.80;99.90;;;;;;4828633;29;20048;-72
2023/06/30 05:18:01;;;;;;;3.38;1.20;;;16.00;99.90;;;;;;4820438;29;20040;-73
2023/06/30 05:20:27;;;;;;;3.33;0.98;;;16.10;99.90;;;;;;4810844;29;20608;-71
2023/06/30 05:22:53;;;;;;;3.65;0.60;;;16.20;99.90;;;;;;4819682;29;20523;-72
2023/06/30 05:25:20;;;;;;;6.00;1.60;;;16.30;99.90;;;;;;4815746;29;20048;-72
2023/06/30 05:27:46;;;;;;;2.97;0.60;;;16.50;99.90;;;;;;4833850;29;20131;-72
2023/06/30 05:30:13;;;;;;;2.50;0.63;;;16.60;99.90;;;;;;4815824;29;20057;-72
2023/06/30 05:32:39;;;;;;;2.60;0.70;;;16.70;99.90;;;;;;4857419;29;20044;-72
2023/06/30 05:35:05;;;;;;;2.75;0.55;;;16.80;99.90;;;;;;4841389;29;21363;-72
2023/06/30 05:37:32;;;;;;;4.20;0.70;;;17.00;99.90;;;;;;4832041;29;20052;-72
2023/06/30 05:39:58;;;;;;;1.67;0.50;;;17.10;99.90;;;;;;4810955;29;20075;-72
2023/06/30 05:42:24;;;;;;;4.75;0.93;;;17.20;99.90;;;;;;4828977;29;20040;-72
2023/06/30 05:44:51;;;;;;;3.45;0.63;;;17.30;99.90;;;;;;4816880;29;20041;-72
2023/06/30 05:47:17;;;;;;;4.50;0.57;;;17.30;99.90;;;;;;4801644;29;20060;-72
2023/06/30 05:49:43;;;;;;;2.78;0.60;;;17.40;99.90;;;;;;4833781;29;20029;-69
2023/06/30 05:52:10;;;;;;;5.25;0.80;;;17.40;99.90;;;;;;4823674;29;20041;-69
2023/06/30 05:54:36;;;;;;;3.17;0.70;;;17.50;99.90;;;;;;4824780;29;20037;-70
2023/06/30 05:57:03;;;;;;;4.22;0.60;;;17.60;99.90;;;;;;4816668;29;20042;-71
2023/06/30 05:59:30;;;;;;;6.50;1.15;;;17.70;99.90;;;;;;4825221;29;20401;-71
2023/06/30 06:01:56;;;;;;;3.90;0.70;;;17.80;99.90;;;;;;4813036;29;20067;-71
2023/06/30 06:04:23;;;;;;;2.45;0.60;;;17.90;99.90;;;;;;4816509;29;21291;-71
2023/06/30 06:06:50;;;;;;;4.72;0.60;;;18.00;99.90;;;;;;4814963;29;20591;-71
2023/06/30 06:09:18;;;;;;;4.25;0.60;;;18.10;99.90;;;;;;4807351;29;21088;-71
2023/06/30 06:11:44;;;;;;;2.70;0.70;;;18.20;99.90;;;;;;4840208;29;20059;-71
2023/06/30 06:14:11;;;;;;;3.85;0.75;;;18.40;99.90;;;;;;4822233;29;20054;-71
2023/06/30 06:16:37;;;;;;;2.95;0.60;;;18.50;99.90;;;;;;4830720;29;20055;-71
2023/06/30 06:19:03;;;;;;;2.28;0.50;;;18.60;99.90;;;;;;4827767;29;20041;-71
2023/06/30 06:21:30;;;;;;;4.07;0.70;;;18.80;99.90;;;;;;4829761;29;20048;-70
2023/06/30 06:23:56;;;;;;;5.43;1.00;;;19.10;99.90;;;;;;4833453;29;21593;-71
2023/06/30 06:26:23;;;;;;;6.10;0.70;;;19.40;99.90;;;;;;4835145;29;20047;-71
2023/06/30 06:28:49;;;;;;;5.20;0.82;;;19.70;99.90;;;;;;4838991;29;20037;-71
2023/06/30 06:31:15;;;;;;;3.15;0.80;;;20.00;99.90;;;;;;4824022;29;20047;-71
2023/06/30 06:33:42;;;;;;;3.30;0.50;;;20.20;99.90;;;;;;4836648;29;20037;-71
2023/06/30 06:36:10;;;;;;;4.63;0.90;;;20.30;99.90;;;;;;4832846;29;20033;-71
2023/06/30 06:38:37;;;;;;;3.85;0.85;;;20.20;99.90;;;;;;4831019;29;20041;-71
2023/06/30 06:41:03;;;;;;;4.28;0.75;;;20.20;99.90;;;;;;4827028;29;20044;-71
2023/06/30 06:43:29;;;;;;;3.65;0.77;;;20.20;99.90;;;;;;4815653;29;22113;-71
2023/06/30 06:45:56;;;;;;;2.97;0.60;;;20.20;99.90;;;;;;4808969;29;20044;-71
2023/06/30 06:48:27;;;;;;;3.33;0.50;;;20.30;99.90;;;;;;4846137;29;20221;-71
2023/06/30 06:50:59;;;;;;;3.22;0.63;;;20.40;99.90;;;;;;4818162;29;20057;-71
2023/06/30 06:53:34;;;;;;;2.45;0.60;;;20.40;99.90;;;;;;4815891;29;22523;-71
2023/06/30 06:56:01;;;;;;;4.03;0.88;;;20.50;99.90;;;;;;4833936;29;20061;-70
2023/06/30 06:58:30;;;;;;;3.63;0.70;;;20.60;99.90;;;;;;4833855;29;20626;-71
2023/06/30 07:00:56;;;;;;;3.85;1.00;;;20.70;99.90;;;;;;4829277;29;20072;-71
2023/06/30 07:03:23;;;;;;;2.92;0.80;;;20.70;99.90;;;;;;4841407;29;20049;-72
2023/06/30 07:05:50;;;;;;;4.00;0.73;;;20.90;99.90;;;;;;4842525;29;20486;-71
2023/06/30 07:08:20;;;;;;;4.60;0.80;;;21.00;99.90;;;;;;4824903;29;20060;-71
2023/06/30 07:10:48;;;;;;;2.70;0.82;;;21.00;99.90;;;;;;4822623;29;20055;-71
2023/06/30 07:13:17;;;;;;;5.05;1.02;;;21.10;99.90;;;;;;4835320;29;20045;-71
2023/06/30 07:15:45;;;;;;;3.83;1.02;;;21.20;99.90;;;;;;4838024;29;20037;-72
2023/06/30 07:18:11;;;;;;;6.32;1.15;;;21.30;99.90;;;;;;4837021;29;20037;-72
2023/06/30 07:20:38;;;;;;;2.97;0.80;;;21.40;99.90;;;;;;4826351;29;20048;-70
2023/06/30 07:23:04;;;;;;;3.13;0.90;;;21.50;99.90;;;;;;4843251;29;20048;-70
2023/06/30 07:25:30;;;;;;;2.35;0.60;;;21.60;99.90;;;;;;4844067;29;20041;-71
2023/06/30 07:27:57;;;;;;;4.50;0.93;;;21.60;99.90;;;;;;4820115;29;20048;-71
2023/06/30 07:30:25;;;;;;;2.03;0.50;;;21.60;99.90;;;;;;4825789;29;20501;-72
2023/06/30 07:32:52;;;;;;;2.47;0.50;;;21.60;99.90;;;;;;4813053;29;20255;-71
2023/06/30 07:35:19;;;;;;;2.53;0.95;;;21.70;99.90;;;;;;4828553;29;20033;-71
2023/06/30 07:37:46;;;;;;;4.13;1.00;;;21.70;99.90;;;;;;4813952;29;20037;-71
2023/06/30 07:40:13;;;;;;;5.35;1.42;;;21.80;99.90;;;;;;4814722;29;20032;-71
2023/06/30 07:42:40;;;;;;;4.00;1.20;;;21.90;99.90;;;;;;4823350;29;20048;-72
2023/06/30 07:45:11;;;;;;;2.33;0.60;;;22.00;99.90;;;;;;4836812;29;20029;-71
2023/06/30 07:47:42;;;;;;;1.63;0.50;;;22.10;99.90;;;;;;4812751;29;20081;-72
2023/06/30 07:50:11;;;;;;;5.07;1.30;;;22.20;99.90;;;;;;4824255;29;20064;-72
2023/06/30 07:52:47;;;;;;;4.38;1.05;;;22.30;99.30;;;;;;4811566;29;20049;-71
2023/06/30 07:55:17;;;;;;;2.05;0.60;;;22.40;99.00;;;;;;4828061;29;20037;-71
2023/06/30 07:57:45;;;;;;;2.33;0.40;;;22.50;99.00;;;;;;4830035;29;20047;-71
2023/06/30 08:00:15;;;;;;;1.02;0.30;;;22.60;98.50;;;;;;4835401;29;20035;-72
2023/06/30 08:02:42;;;;;;;1.60;0.50;;;22.70;97.90;;;;;;4839483;29;20045;-70
2023/06/30 08:05:09;;;;;;;1.50;0.40;;;22.70;97.40;;;;;;4831169;29;20048;-71
2023/06/30 08:07:35;;;;;;;2.70;0.40;;;22.80;97.20;;;;;;4813667;29;20040;-70
2023/06/30 08:10:03;;;;;;;2.63;0.43;;;22.90;97.00;;;;;;4824059;29;20033;-71
2023/06/30 08:12:30;;;;;;;2.10;0.40;;;23.10;96.70;;;;;;4826039;29;20032;-71
2023/06/30 08:14:56;;;;;;;1.67;0.32;;;23.20;96.20;;;;;;4829739;29;20421;-71
2023/06/30 08:17:22;;;;;;;2.47;0.40;;;23.20;95.90;;;;;;4833556;29;20041;-71
2023/06/30 08:19:49;;;;;;;2.00;0.60;;;23.40;95.70;;;;;;4834381;29;20519;-72
2023/06/30 08:22:18;;;;;;;3.22;0.50;;;23.60;95.50;;;;;;4837839;29;20040;-70
2023/06/30 08:24:44;;;;;;;1.70;0.40;;;23.60;95.00;;;;;;4815445;29;20045;-70
2023/06/30 08:27:10;;;;;;;1.27;0.40;;;23.50;95.20;;;;;;4816263;29;20416;-71
2023/06/30 08:29:37;;;;;;;2.95;0.40;;;23.30;95.10;;;;;;4809405;29;20839;-70
2023/06/30 08:32:04;;;;;;;1.85;0.40;;;23.00;95.30;;;;;;4811962;29;20045;-71
2023/06/30 08:34:31;;;;;;;1.95;0.50;;;22.90;95.00;;;;;;4798689;29;20503;-71
2023/06/30 08:36:57;;;;;;;2.08;0.40;;;22.90;95.00;;;;;;4841120;29;20049;-71
2023/06/30 08:39:27;;;;;;;1.05;0.40;;;23.00;94.70;;;;;;4821130;29;21500;-69
2023/06/30 08:41:55;;;;;;;1.00;0.40;;;23.10;94.50;;;;;;4803551;29;20059;-71
2023/06/30 08:44:25;;;;;;;2.03;0.77;;;23.30;94.30;;;;;;4829285;29;20033;-70
2023/06/30 08:46:53;;;;;;;1.20;0.25;;;23.30;94.00;;;;;;4814095;29;20516;-70
2023/06/30 08:49:22;;;;;;;2.05;0.40;;;23.30;93.60;;;;;;4824628;29;20041;-70
2023/06/30 08:51:56;;;;;;;1.63;0.68;;;23.40;93.00;;;;;;4825871;29;20045;-70
2023/06/30 08:54:24;;;;;;;3.65;0.40;;;23.50;92.40;;;;;;4805225;29;20045;-70
2023/06/30 08:56:51;;;;;;;1.15;0.40;;;23.60;91.90;;;;;;4827328;29;20068;-70
2023/06/30 08:59:17;;;;;;;1.63;0.38;;;23.80;91.70;;;;;;4817314;29;21746;-70
2023/06/30 09:01:45;;;;;;;1.98;0.30;;;23.90;91.50;;;;;;4826749;29;20044;-69
2023/06/30 09:04:12;;;;;;;1.08;0.30;;;24.10;91.40;;;;;;4827658;29;20037;-69
2023/06/30 09:06:47;;;;;;;1.30;0.40;;;24.20;91.10;;;;;;4811059;29;20052;-70
2023/06/30 09:09:27;;;;;;;1.83;0.30;;;24.30;90.50;;;;;;4805552;29;20049;-69
2023/06/30 09:11:54;;;;;;;1.40;0.40;;;24.40;90.40;;;;;;4825126;29;20041;-70
2023/06/30 09:14:23;;;;;;;1.35;0.30;;;24.50;90.10;;;;;;4823682;29;20044;-70
2023/06/30 09:16:49;;;;;;;1.00;0.30;;;24.60;89.60;;;;;;4824293;29;20049;-69
2023/06/30 09:19:16;;;;;;;1.58;0.40;;;24.70;88.60;;;;;;4827073;29;20033;-70
2023/06/30 09:21:42;;;;;;;4.25;0.40;;;24.90;88.30;;;;;;4826842;29;20041;-70
2023/06/30 09:24:08;;;;;;;1.20;0.32;;;25.10;88.20;;;;;;4817105;29;20412;-69
2023/06/30 09:26:35;;;;;;;2.03;0.30;;;25.20;87.50;;;;;;4813809;29;21247;-69
2023/06/30 09:29:06;;;;;;;1.83;0.40;;;25.30;86.70;;;;;;4824974;29;20048;-70
2023/06/30 09:31:33;;;;;;;1.42;0.40;;;25.40;85.40;;;;;;4804830;29;20046;-70
2023/06/30 09:34:11;;;;;;;1.75;0.40;;;25.40;84.90;;;;;;4829704;29;20056;-70
2023/06/30 09:36:45;;;;;;;2.10;0.40;;;25.60;84.90;;;;;;4823479;29;20037;-70
2023/06/30 09:39:11;;;;;;;1.10;0.30;;;25.60;84.30;;;;;;4827356;29;20052;-69
2023/06/30 09:41:44;;;;;;;1.92;0.40;;;25.80;83.20;;;;;;4831135;29;20033;-69
2023/06/30 09:44:12;;;;;;;5.10;0.30;;;25.90;83.10;;;;;;4834449;29;20656;-69
2023/06/30 09:46:49;;;;;;;3.45;0.68;;;26.00;82.60;;;;;;4831316;29;20063;-70
2023/06/30 09:49:23;;;;;;;1.30;0.47;;;26.00;81.40;;;;;;4831637;29;21080;-70
2023/06/30 09:51:50;;;;;;;2.50;0.57;;;26.20;81.20;;;;;;4824850;29;20033;-70
2023/06/30 09:54:18;;;;;;;2.03;0.47;;;26.30;78.90;;;;;;4845489;29;20052;-70
2023/06/30 09:56:45;;;;;;;2.38;0.50;;;26.30;79.90;;;;;;4815679;29;21864;-69
2023/06/30 09:59:13;;;;;;;1.30;0.40;;;26.30;79.70;;;;;;4827308;29;20036;-70
2023/06/30 10:01:40;;;;;;;3.08;0.40;;;26.30;79.80;;;;;;4813390;29;20045;-70
2023/06/30 10:04:06;;;;;;;2.47;0.40;;;26.50;79.40;;;;;;4832283;29;20060;-70
2023/06/30 10:06:35;;;;;;;1.95;0.43;;;26.70;78.80;;;;;;4817466;29;20509;-69
2023/06/30 10:09:04;;;;;;;2.13;0.43;;;26.70;78.60;;;;;;4821377;29;20079;-70
2023/06/30 10:11:32;;;;;;;1.63;0.40;;;26.70;78.00;;;;;;4822834;29;20537;-70
2023/06/30 10:14:00;;;;;;;1.60;0.45;;;26.70;77.60;;;;;;4835398;29;20037;-69
2023/06/30 10:16:28;;;;;;;2.30;0.75;;;26.50;76.70;;;;;;4830472;29;20055;-69
2023/06/30 10:18:58;;;;;;;1.80;0.70;;;26.40;76.70;;;;;;4826081;29;20037;-71
2023/06/30 10:21:24;;;;;;;2.67;0.80;;;26.20;77.30;;;;;;4825631;29;20316;-72
2023/06/30 10:23:51;;;;;;;3.13;0.55;;;26.10;77.10;;;;;;4830671;29;20041;-72
2023/06/30 10:26:20;;;;;;;2.47;0.60;;;25.90;77.90;;;;;;4833265;29;20038;-72
2023/06/30 10:28:47;;;;;;;3.03;0.70;;;25.70;78.30;;;;;;4838098;29;21368;-72
2023/06/30 10:31:15;;;;;;;2.22;0.63;;;25.60;78.70;;;;;;4836237;29;20060;-73
2023/06/30 10:33:41;;;;;;;2.60;0.50;;;25.70;78.90;;;;;;4833250;29;20037;-72
2023/06/30 10:36:09;;;;;;;1.88;0.50;;;25.80;78.90;;;;;;4831034;29;20051;-70
2023/06/30 10:38:37;;;;;;;2.75;0.40;;;26.20;78.60;;;;;;4828343;29;20931;-70
2023/06/30 10:41:19;;;;;;;3.00;0.50;;;26.40;77.80;;;;;;4808382;29;21652;-70
2023/06/30 10:44:15;;;;;;;3.97;0.82;;;26.50;77.20;;;;;;4830580;29;21999;-70
2023/06/30 10:46:48;;;;;;;2.15;0.60;;;26.40;76.50;;;;;;4801662;29;20804;-70
2023/06/30 10:49:33;;;;;;;2.47;0.60;;;26.30;77.00;;;;;;4836858;29;21117;-70
2023/06/30 10:52:03;;;;;;;3.78;0.60;;;26.20;77.40;;;;;;4831564;29;20049;-70
2023/06/30 10:54:39;;;;;;;2.10;0.73;;;26.10;77.70;;;;;;4815385;29;20044;-70
2023/06/30 10:57:33;;;;;;;2.15;0.50;;;26.10;77.50;;;;;;4801353;29;20064;-70
2023/06/30 11:00:05;;;;;;;3.17;0.50;;;26.00;77.70;;;;;;4826953;29;20049;-72
2023/06/30 11:02:33;;;;;;;4.65;0.70;;;26.10;77.50;;;;;;4813850;29;20036;-71
2023/06/30 11:05:22;;;;;;;2.75;0.50;;;26.40;77.00;;;;;;4839573;29;20041;-69
2023/06/30 11:08:01;;;;;;;2.38;0.60;;;26.90;77.20;;;;;;4828562;29;20048;-71
2023/06/30 11:10:37;;;;;;;2.45;0.70;;;27.40;76.90;;;;;;4826688;29;20056;-72
2023/06/30 11:13:08;;;;;;;2.85;0.70;;;28.00;75.80;;;;;;4829703;29;20047;-73
2023/06/30 11:15:37;;;;;;;1.65;0.50;;;28.30;75.20;;;;;;4830021;29;20839;-73
2023/06/30 11:18:06;;;;;;;7.97;0.80;;;28.80;75.10;;;;;;4828701;29;21236;-72
2023/06/30 11:20:33;;;;;;;2.47;0.60;;;28.90;73.10;;;;;;4821603;29;20040;-74
2023/06/30 11:23:03;;;;;;;2.13;0.50;;;29.10;72.10;;;;;;4839159;29;20037;-70
2023/06/30 11:25:31;;;;;;;2.78;1.00;;;29.50;71.30;;;;;;4839773;29;20048;-69
2023/06/30 11:28:01;;;;;;;2.08;0.40;;;29.40;69.70;;;;;;4833281;29;20919;-70
2023/06/30 11:30:31;;;;;;;3.42;0.80;;;29.00;69.70;;;;;;4823856;29;20522;-69
2023/06/30 11:32:58;;;;;;;3.20;0.60;;;28.70;69.50;;;;;;4828130;29;21527;-70
2023/06/30 11:35:26;;;;;;;4.18;0.73;;;28.80;70.00;;;;;;4830317;29;20515;-69
2023/06/30 11:37:53;;;;;;;3.13;0.50;;;29.20;69.90;;;;;;4801687;29;21925;-70
2023/06/30 11:40:21;;;;;;;2.20;0.63;;;29.60;69.10;;;;;;4829431;29;20053;-70
2023/06/30 11:42:49;;;;;;;4.05;0.50;;;29.50;69.10;;;;;;4810991;29;20045;-70
2023/06/30 11:45:19;;;;;;;2.45;0.60;;;29.50;68.00;;;;;;4838980;29;21731;-70
2023/06/30 11:47:48;;;;;;;1.95;0.70;;;29.80;68.00;;;;;;4827330;29;20313;-69
2023/06/30 11:50:15;;;;;;;2.05;0.40;;;30.50;67.50;;;;;;4825093;29;20052;-70
2023/06/30 11:52:41;;;;;;;2.90;0.50;;;31.00;67.30;;;;;;4824991;29;20060;-70
2023/06/30 11:55:10;;;;;;;2.15;0.50;;;31.60;66.10;;;;;;4799337;29;20044;-70
2023/06/30 11:57:37;;;;;;;2.90;0.60;;;31.90;64.70;;;;;;4832389;29;20053;-70
2023/06/30 12:00:19;;;;;;;3.95;0.60;;;32.20;63.70;;;;;;4820285;29;20697;-70
2023/06/30 12:02:59;;;;;;;7.93;5.90;;;32.40;61.60;;;;;;4837992;29;20393;-69
2023/06/30 12:05:26;;;;;;;5.32;1.92;;;31.70;62.00;;;;;;4829412;29;20037;-69
2023/06/30 12:07:57;;;;;;;2.42;1.17;;;31.60;62.30;;;;;;4828814;29;20048;-70
2023/06/30 12:10:38;;;;;;;1.98;0.60;;;31.80;61.20;;;;;;4808176;29;21999;-69
2023/06/30 12:13:08;;;;;;;4.40;0.60;;;31.90;59.30;;;;;;4797211;29;21480;-70
2023/06/30 12:15:36;;;;;;;2.97;0.60;;;31.60;59.20;;;;;;4813807;29;21441;-70
2023/06/30 12:18:06;;;;;;;2.65;0.60;;;31.40;60.50;;;;;;4841815;29;20036;-70
2023/06/30 12:20:35;;;;;;;2.67;0.70;;;31.70;60.70;;;;;;4816840;29;21184;-69
2023/06/30 12:23:03;;;;;;;2.70;0.65;;;32.40;60.20;;;;;;4832280;29;20045;-70
2023/06/30 12:25:34;;;;;;;2.95;0.98;;;32.50;58.90;;;;;;4828904;29;20044;-69
2023/06/30 12:28:07;;;;;;;2.17;0.50;;;32.30;59.10;;;;;;4830277;29;20403;-69
2023/06/30 12:30:33;;;;;;;1.33;0.50;;;32.70;58.90;;;;;;4805265;29;20057;-70
2023/06/30 12:33:01;;;;;;;2.08;0.63;;;33.20;58.60;;;;;;4815953;29;21642;-69
2023/06/30 12:35:29;;;;;;;2.60;0.65;;;33.80;57.80;;;;;;4834374;29;20037;-70
2023/06/30 12:37:55;;;;;;;2.20;0.60;;;34.40;57.10;;;;;;4825687;29;20436;-69
2023/06/30 12:40:22;;;;;;;1.98;0.52;;;34.80;55.40;;;;;;4817780;29;20029;-68
2023/06/30 12:42:51;;;;;;;3.35;0.50;;;35.00;54.90;;;;;;4830228;29;20045;-69
2023/06/30 12:45:17;;;;;;;2.17;0.55;;;35.20;54.20;;;;;;4815156;29;20037;-69
2023/06/30 12:47:43;;;;;;;2.85;0.60;;;35.40;53.70;;;;;;4815012;29;20048;-69
2023/06/30 12:50:10;;;;;;;2.83;0.60;;;35.50;53.10;;;;;;4824893;29;20045;-69
2023/06/30 12:52:36;;;;;;;3.17;0.70;;;35.40;51.90;;;;;;4809825;29;20123;-69